createdAt,value
2024-01-05T00:00:16.391Z,-24.25
2024-01-05T00:02:43.857Z,-24.17
2024-01-05T00:05:11.179Z,-24.24
2024-01-05T00:07:50.245Z,-24.19
2024-01-05T00:10:17.756Z,-24.20
2024-01-05T00:12:45.556Z,-24.29
2024-01-05T00:15:13.940Z,-24.14
2024-01-05T00:17:57.796Z,-24.15
2024-01-05T00:20:25.376Z,-24.15
2024-01-05T00:22:52.931Z,-24.19
2024-01-05T00:25:22.492Z,-24.14
2024-01-05T00:27:53.105Z,-24.15
2024-01-05T00:30:20.909Z,-24.15
2024-01-05T00:32:48.644Z,-24.17
2024-01-05T00:35:16.188Z,-24.15
2024-01-05T00:37:43.420Z,-24.15
2024-01-05T00:40:11.162Z,-24.51
2024-01-05T00:42:41.842Z,-24.17
2024-01-05T00:45:10.031Z,-24.08
2024-01-05T00:47:43.858Z,-24.11
2024-01-05T00:50:11.124Z,-24.09
2024-01-05T00:52:38.229Z,-24.08
2024-01-05T00:55:05.833Z,-24.09
2024-01-05T00:57:34.076Z,-24.08
2024-01-05T01:00:01.704Z,-24.06
2024-01-05T01:02:30.919Z,-24.06
2024-01-05T01:04:58.429Z,-24.08
2024-01-05T01:07:25.615Z,-24.00
2024-01-05T01:09:52.910Z,-24.09
2024-01-05T01:12:20.124Z,-24.12
2024-01-05T01:14:47.381Z,-24.00
2024-01-05T01:17:14.589Z,-23.98
2024-01-05T01:19:41.846Z,-23.97
2024-01-05T01:22:09.138Z,-23.96
2024-01-05T01:24:36.819Z,-23.94
2024-01-05T01:27:04.410Z,-24.39
2024-01-05T01:29:31.774Z,-23.88
2024-01-05T01:31:59.154Z,-23.86
2024-01-05T01:34:26.505Z,-23.88
2024-01-05T01:36:54.704Z,-23.93
2024-01-05T01:39:21.929Z,-24.08
2024-01-05T01:41:49.359Z,-23.90
2024-01-05T01:44:16.663Z,-24.79
2024-01-05T01:46:44.266Z,-23.88
2024-01-05T01:49:11.938Z,-23.92
2024-01-05T01:51:40.821Z,-24.02
2024-01-05T01:54:08.282Z,-23.84
2024-01-05T01:56:38.074Z,-23.88
2024-01-05T01:59:07.125Z,-23.85
2024-01-05T02:01:35.590Z,-23.81
2024-01-05T02:04:04.940Z,-23.75
2024-01-05T02:06:33.173Z,-24.22
2024-01-05T02:09:01.046Z,-23.74
2024-01-05T02:11:29.265Z,-23.67
2024-01-05T02:13:56.583Z,-23.58
2024-01-05T02:16:23.874Z,-23.98
2024-01-05T02:19:11.089Z,-24.29
2024-01-05T02:21:47.389Z,-23.81
2024-01-05T02:24:14.743Z,-23.42
2024-01-05T02:26:42.329Z,-23.47
2024-01-05T02:29:09.861Z,-23.93
2024-01-05T02:31:37.202Z,-24.47
2024-01-05T02:34:04.472Z,-23.62
2024-01-05T02:36:31.935Z,-24.20
2024-01-05T02:39:00.602Z,-23.68
2024-01-05T02:41:27.787Z,-23.64
2024-01-05T02:43:55.069Z,-23.87
2024-01-05T02:46:22.631Z,-23.47
2024-01-05T02:48:50.120Z,-23.94
2024-01-05T02:51:17.910Z,-23.93
2024-01-05T02:53:45.253Z,-24.01
2024-01-05T02:56:21.090Z,-23.62
2024-01-05T02:58:48.727Z,-23.40
2024-01-05T03:01:18.970Z,-23.37
2024-01-05T03:03:51.284Z,-23.97
2024-01-05T03:06:20.953Z,-23.41
2024-01-05T03:08:48.390Z,-23.54
2024-01-05T03:11:15.748Z,-24.01
2024-01-05T03:13:43.200Z,-23.46
2024-01-05T03:16:10.523Z,-23.41
2024-01-05T03:18:38.059Z,-23.48
2024-01-05T03:21:05.703Z,-23.83
2024-01-05T03:23:33.324Z,-23.71
2024-01-05T03:26:00.599Z,-23.27
2024-01-05T03:28:28.176Z,-23.78
2024-01-05T03:30:55.672Z,-23.23
2024-01-05T03:33:23.970Z,-23.13
2024-01-05T03:35:51.921Z,-23.08
2024-01-05T03:38:19.390Z,-23.12
2024-01-05T03:40:46.702Z,-23.23
2024-01-05T03:43:14.511Z,-23.19
2024-01-05T03:45:42.037Z,-23.28
2024-01-05T03:48:09.580Z,-23.16
2024-01-05T03:50:37.152Z,-23.14
2024-01-05T03:53:04.503Z,-23.14
2024-01-05T03:55:31.940Z,-23.09
2024-01-05T03:57:59.677Z,-23.10
2024-01-05T04:00:26.845Z,-23.07
2024-01-05T04:02:54.144Z,-23.01
2024-01-05T04:05:21.495Z,-22.97
2024-01-05T04:07:49.031Z,-22.96
2024-01-05T04:10:16.506Z,-22.97
2024-01-05T04:12:44.116Z,-23.03
2024-01-05T04:15:11.529Z,-23.04
2024-01-05T04:17:38.952Z,-22.92
2024-01-05T04:20:07.440Z,-22.95
2024-01-05T04:22:34.689Z,-23.75
2024-01-05T04:25:02.081Z,-23.05
2024-01-05T04:27:32.656Z,-23.15
2024-01-05T04:29:59.867Z,-23.24
2024-01-05T04:32:27.108Z,-23.29
2024-01-05T04:34:54.374Z,-23.30
2024-01-05T04:37:21.590Z,-23.35
2024-01-05T04:39:48.945Z,-23.96
2024-01-05T04:42:17.421Z,-23.46
2024-01-05T04:44:44.674Z,-23.46
2024-01-05T04:47:12.246Z,-23.46
2024-01-05T04:49:39.581Z,-23.91
2024-01-05T04:52:06.972Z,-23.91
2024-01-05T04:54:34.470Z,-23.43
2024-01-05T04:57:03.423Z,-23.48
2024-01-05T04:59:31.922Z,-23.43
2024-01-05T05:02:00.690Z,-23.45
2024-01-05T05:04:27.973Z,-23.37
2024-01-05T05:06:55.270Z,-23.44
2024-01-05T05:09:22.573Z,-23.33
2024-01-05T05:11:49.957Z,-23.28
2024-01-05T05:14:17.330Z,-23.19
2024-01-05T05:16:44.648Z,-23.19
2024-01-05T05:19:12.179Z,-23.24
2024-01-05T05:21:39.575Z,-23.21
2024-01-05T05:24:06.987Z,-23.12
2024-01-05T05:26:34.282Z,-23.27
2024-01-05T05:29:01.580Z,-23.19
2024-01-05T05:31:29.003Z,-22.90
2024-01-05T05:33:56.553Z,-23.64
2024-01-05T05:36:23.946Z,-24.62
2024-01-05T05:38:51.589Z,-22.96
2024-01-05T05:41:18.769Z,-22.95
2024-01-05T05:43:47.389Z,-23.28
2024-01-05T05:46:14.654Z,-23.15
2024-01-05T05:48:42.096Z,-23.26
2024-01-05T05:51:09.666Z,-22.98
2024-01-05T05:53:36.974Z,-22.97
2024-01-05T05:56:05.366Z,-23.09
2024-01-05T05:58:32.911Z,-23.13
2024-01-05T06:01:00.317Z,-23.09
2024-01-05T06:03:28.051Z,-23.05
2024-01-05T06:05:55.565Z,-23.08
2024-01-05T06:08:22.803Z,-23.76
2024-01-05T06:10:50.161Z,-22.97
2024-01-05T06:13:17.520Z,-23.55
2024-01-05T06:15:44.875Z,-22.75
2024-01-05T06:18:12.507Z,-23.10
2024-01-05T06:20:39.938Z,-23.53
2024-01-05T06:23:07.384Z,-22.66
2024-01-05T06:25:34.574Z,-22.59
2024-01-05T06:28:01.844Z,-22.64
2024-01-05T06:30:29.271Z,-22.62
2024-01-05T06:32:58.102Z,-22.99
2024-01-05T06:35:25.553Z,-23.32
2024-01-05T06:37:52.743Z,-22.36
2024-01-05T06:40:20.105Z,-22.66
2024-01-05T06:42:47.474Z,-22.05
2024-01-05T06:45:14.843Z,-21.85
2024-01-05T06:47:55.617Z,-21.87
2024-01-05T06:50:23.711Z,-22.28
2024-01-05T06:52:51.114Z,-21.85
2024-01-05T06:55:18.361Z,-21.77
2024-01-05T06:57:47.141Z,-21.65
2024-01-05T07:00:14.889Z,-21.41
2024-01-05T07:02:42.288Z,-21.54
2024-01-05T07:05:09.717Z,-21.53
2024-01-05T07:07:37.050Z,-21.52
2024-01-05T07:10:07.541Z,-21.34
2024-01-05T07:12:34.859Z,-21.39
2024-01-05T07:15:02.904Z,-21.17
2024-01-05T07:20:13.537Z,-20.64
2024-01-05T07:22:43.516Z,-20.83
2024-01-05T07:25:14.661Z,-21.00
2024-01-05T07:27:42.052Z,-21.90
2024-01-05T07:30:10.334Z,-21.18
2024-01-05T07:32:58.360Z,-21.74
2024-01-05T07:35:33.925Z,-20.94
2024-01-05T07:38:01.335Z,-20.90
2024-01-05T07:40:34.119Z,-20.82
2024-01-05T07:43:02.535Z,-20.83
2024-01-05T07:45:33.772Z,-20.65
2024-01-05T07:48:07.935Z,-20.62
2024-01-05T07:50:38.850Z,-20.50
2024-01-05T07:53:06.597Z,-20.61
2024-01-05T07:55:34.382Z,-20.56
2024-01-05T07:58:03.086Z,-20.45
2024-01-05T08:00:42.891Z,-20.32
2024-01-05T08:03:37.135Z,-20.44
2024-01-05T08:06:07.201Z,-20.93
2024-01-05T08:08:34.797Z,-20.76
2024-01-05T08:11:24.093Z,-20.49
2024-01-05T08:13:53.186Z,-20.61
2024-01-05T08:16:20.564Z,-20.30
2024-01-05T08:18:48.701Z,-20.06
2024-01-05T08:21:16.033Z,-20.52
2024-01-05T08:23:43.312Z,-20.31
2024-01-05T08:26:11.214Z,-20.08
2024-01-05T08:28:38.499Z,-19.83
2024-01-05T08:31:07.193Z,-20.30
2024-01-05T08:33:34.751Z,-19.58
2024-01-05T08:36:02.466Z,-19.20
2024-01-05T08:38:29.830Z,-19.25
2024-01-05T08:40:57.601Z,-19.49
2024-01-05T08:43:24.955Z,-19.63
2024-01-05T08:45:54.609Z,-19.14
2024-01-05T08:48:25.997Z,-19.54
2024-01-05T08:50:56.758Z,-19.49
2024-01-05T08:53:30.072Z,-19.58
2024-01-05T08:56:08.161Z,-20.09
2024-01-05T08:58:37.716Z,-20.01
2024-01-05T09:01:08.428Z,-19.55
2024-01-05T09:03:42.987Z,-19.42
2024-01-05T09:06:10.497Z,-19.44
2024-01-05T09:08:37.815Z,-19.51
2024-01-05T09:11:12.705Z,-19.39
2024-01-05T09:13:40.073Z,-19.12
2024-01-05T09:16:11.507Z,-19.33
2024-01-05T09:18:44.799Z,-19.32
2024-01-05T09:21:15.874Z,-18.88
2024-01-05T09:23:46.520Z,-18.77
2024-01-05T09:26:16.010Z,-18.76
2024-01-05T09:29:30.955Z,-18.91
2024-01-05T09:31:59.336Z,-18.64
2024-01-05T09:34:50.041Z,-18.65
2024-01-05T09:37:20.220Z,-18.69
2024-01-05T09:40:11.874Z,-19.53
2024-01-05T09:43:03.620Z,-18.94
2024-01-05T09:45:57.154Z,-19.58
2024-01-05T09:48:48.503Z,-18.98
2024-01-05T09:51:47.770Z,-19.72
2024-01-05T09:54:35.477Z,-19.37
2024-01-05T09:57:49.803Z,-19.08
2024-01-05T10:00:37.368Z,-18.89
2024-01-05T10:03:28.066Z,-18.59
2024-01-05T10:06:19.154Z,-18.13
2024-01-05T10:09:07.414Z,-17.80
2024-01-05T10:11:55.940Z,-17.70
2024-01-05T10:14:43.158Z,-18.04
2024-01-05T10:17:30.413Z,-17.75
2024-01-05T10:20:18.827Z,-17.62
2024-01-05T10:22:49.945Z,-17.83
2024-01-05T10:25:37.624Z,-17.86
2024-01-05T10:28:33.721Z,-18.94
2024-01-05T10:31:21.021Z,-18.50
2024-01-05T10:34:10.328Z,-18.18
2024-01-05T10:37:07.445Z,-18.54
2024-01-05T10:39:55.708Z,-18.72
2024-01-05T10:42:42.986Z,-18.76
2024-01-05T10:45:30.943Z,-19.78
2024-01-05T10:48:21.309Z,-19.31
2024-01-05T10:51:09.170Z,-19.50
2024-01-05T10:53:58.441Z,-18.82
2024-01-05T10:56:46.846Z,-18.64
2024-01-05T10:59:37.185Z,-18.98
2024-01-05T11:02:42.674Z,-19.09
2024-01-05T11:05:32.341Z,-18.72
2024-01-05T11:08:37.623Z,-18.85
2024-01-05T11:11:43.123Z,-18.80
2024-01-05T11:14:42.422Z,-18.77
2024-01-05T11:17:48.678Z,-18.77
2024-01-05T11:21:06.677Z,-19.10
2024-01-05T11:23:58.107Z,-18.63
2024-01-05T11:26:45.269Z,-18.90
2024-01-05T11:29:49.677Z,-18.60
2024-01-05T11:32:45.553Z,-19.26
2024-01-05T11:35:44.514Z,-18.83
2024-01-05T11:38:32.331Z,-19.14
2024-01-05T11:41:20.126Z,-18.94
2024-01-05T11:44:36.747Z,-19.03
2024-01-05T11:47:47.535Z,-19.06
2024-01-05T11:50:36.962Z,-18.84
2024-01-05T11:53:25.408Z,-18.71
2024-01-05T11:56:18.713Z,-18.60
2024-01-05T11:59:06.053Z,-18.61
2024-01-05T12:01:57.043Z,-18.67
2024-01-05T12:04:48.212Z,-18.58
2024-01-05T12:07:35.582Z,-18.54
2024-01-05T12:10:26.709Z,-18.55
2024-01-05T12:13:13.951Z,-18.57
2024-01-05T12:16:04.029Z,-18.77
2024-01-05T12:18:53.554Z,-18.53
2024-01-05T12:21:40.919Z,-18.52
2024-01-05T12:24:28.280Z,-18.79
2024-01-05T12:27:15.634Z,-18.67
2024-01-05T12:30:04.195Z,-18.67
2024-01-05T12:32:54.153Z,-18.77
2024-01-05T12:35:42.905Z,-18.85
2024-01-05T12:38:30.661Z,-18.96
2024-01-05T12:41:21.664Z,-18.99
2024-01-05T12:44:10.732Z,-18.79
2024-01-05T12:46:57.821Z,-18.67
2024-01-05T12:49:45.142Z,-18.73
2024-01-05T12:52:39.554Z,-18.77
2024-01-05T12:55:34.582Z,-18.64
2024-01-05T12:58:21.727Z,-18.86
2024-01-05T13:01:19.836Z,-18.77
2024-01-05T13:04:09.641Z,-18.82
2024-01-05T13:06:56.966Z,-19.31
2024-01-05T13:09:44.405Z,-19.35
2024-01-05T13:12:37.397Z,-18.95
2024-01-05T13:15:24.724Z,-19.00
2024-01-05T13:18:12.228Z,-18.85
2024-01-05T13:21:00.280Z,-19.05
2024-01-05T13:23:50.303Z,-18.78
2024-01-05T13:26:41.753Z,-18.81
2024-01-05T13:30:07.686Z,-18.73
2024-01-05T13:32:57.519Z,-18.74
2024-01-05T13:35:45.021Z,-18.80
2024-01-05T13:38:32.577Z,-18.84
2024-01-05T13:41:27.231Z,-19.01
2024-01-05T13:44:14.422Z,-18.95
2024-01-05T13:47:01.649Z,-18.86
2024-01-05T13:49:49.043Z,-18.99
2024-01-05T13:52:39.269Z,-19.44
2024-01-05T13:55:29.713Z,-19.21
2024-01-05T13:58:17.028Z,-19.46
2024-01-05T14:01:07.720Z,-19.75
2024-01-05T14:03:54.998Z,-19.36
2024-01-05T14:06:42.115Z,-19.41
2024-01-05T14:10:43.697Z,-19.37
2024-01-05T14:13:04.455Z,-19.42
2024-01-05T14:15:54.152Z,-19.46
2024-01-05T14:18:47.497Z,-19.39
2024-01-05T14:21:34.896Z,-19.56
2024-01-05T14:24:43.484Z,-20.08
2024-01-05T14:27:30.717Z,-20.08
2024-01-05T14:30:18.372Z,-19.52
2024-01-05T14:33:09.230Z,-19.58
2024-01-05T14:35:58.745Z,-19.55
2024-01-05T14:38:45.869Z,-19.65
2024-01-05T14:41:34.691Z,-19.47
2024-01-05T14:44:21.975Z,-19.87
2024-01-05T14:47:09.130Z,-19.72
2024-01-05T14:49:56.558Z,-19.70
2024-01-05T14:52:52.261Z,-19.91
2024-01-05T14:55:46.849Z,-19.79
2024-01-05T14:58:34.277Z,-19.79
2024-01-05T15:01:21.563Z,-19.75
2024-01-05T15:04:08.929Z,-19.70
2024-01-05T15:06:58.394Z,-19.68
2024-01-05T15:09:48.056Z,-19.76
2024-01-05T15:12:35.941Z,-20.21
2024-01-05T15:15:23.432Z,-19.71
2024-01-05T15:18:10.734Z,-19.84
2024-01-05T15:20:57.829Z,-19.83
2024-01-05T15:23:49.077Z,-20.36
2024-01-05T15:26:49.320Z,-20.37
2024-01-05T15:29:40.340Z,-19.93
2024-01-05T15:32:27.506Z,-19.90
2024-01-05T15:35:15.047Z,-20.17
2024-01-05T15:38:02.978Z,-19.96
2024-01-05T15:40:59.287Z,-19.93
2024-01-05T15:43:50.963Z,-20.60
2024-01-05T15:46:38.159Z,-20.09
2024-01-05T15:49:25.870Z,-19.96
2024-01-05T15:52:16.515Z,-19.99
2024-01-05T15:55:07.111Z,-19.99
2024-01-05T15:58:20.001Z,-20.02
2024-01-05T16:01:07.819Z,-20.06
2024-01-05T16:03:55.387Z,-20.15
2024-01-05T16:06:43.720Z,-20.17
2024-01-05T16:09:31.313Z,-20.15
2024-01-05T16:12:18.536Z,-20.14
2024-01-05T16:15:06.371Z,-20.03
2024-01-05T16:17:54.031Z,-20.76
2024-01-05T16:20:42.597Z,-20.20
2024-01-05T16:23:29.757Z,-20.09
2024-01-05T16:26:16.983Z,-20.08
2024-01-05T16:29:06.669Z,-20.61
2024-01-05T16:31:53.762Z,-20.28
2024-01-05T16:38:10.059Z,-20.09
2024-01-05T16:40:57.196Z,-20.15
2024-01-05T16:43:46.814Z,-20.09
2024-01-05T16:46:38.316Z,-20.10
2024-01-05T16:49:37.750Z,-20.68
2024-01-05T16:52:45.456Z,-20.51
2024-01-05T16:55:32.697Z,-20.16
2024-01-05T16:58:22.789Z,-20.17
2024-01-05T17:01:26.506Z,-20.32
2024-01-05T17:04:20.610Z,-20.99
2024-01-05T17:07:13.471Z,-20.06
2024-01-05T17:10:00.752Z,-20.09
2024-01-05T17:12:49.076Z,-20.18
2024-01-05T17:15:36.268Z,-20.21
2024-01-05T17:18:26.386Z,-20.46
2024-01-05T17:21:14.299Z,-20.69
2024-01-05T17:24:02.059Z,-20.25
2024-01-05T17:26:49.575Z,-20.34
2024-01-05T17:29:39.739Z,-20.36
2024-01-05T17:32:26.973Z,-20.71
2024-01-05T17:35:17.607Z,-20.83
2024-01-05T17:38:04.886Z,-20.49
2024-01-05T17:40:52.023Z,-20.39
2024-01-05T17:43:42.789Z,-20.35
2024-01-05T17:47:12.015Z,-20.32
2024-01-05T17:50:02.831Z,-20.54
2024-01-05T17:52:50.643Z,-20.32
2024-01-05T17:55:38.189Z,-20.36
2024-01-05T17:58:26.352Z,-20.99
2024-01-05T18:00:54.033Z,-20.45
2024-01-05T18:03:21.451Z,-20.43
2024-01-05T18:05:52.276Z,-20.41
2024-01-05T18:08:19.777Z,-20.38
2024-01-05T18:10:47.251Z,-21.01
2024-01-05T18:13:15.609Z,-20.40
2024-01-05T18:15:43.159Z,-20.36
2024-01-05T18:18:11.875Z,-20.39
2024-01-05T18:20:53.243Z,-20.39
2024-01-05T18:23:20.575Z,-20.35
2024-01-05T18:25:49.507Z,-20.89
2024-01-05T18:28:20.119Z,-20.32
2024-01-05T18:30:50.065Z,-20.21
2024-01-05T18:33:18.031Z,-20.17
2024-01-05T18:35:48.335Z,-20.18
2024-01-05T18:38:15.867Z,-20.10
2024-01-05T18:40:46.922Z,-20.27
2024-01-05T18:43:15.049Z,-20.04
2024-01-05T18:45:45.602Z,-20.10
2024-01-05T18:48:13.469Z,-20.56
2024-01-05T18:50:41.212Z,-20.12
2024-01-05T18:53:08.674Z,-20.13
2024-01-05T18:55:37.373Z,-20.19
2024-01-05T18:58:07.170Z,-20.20
2024-01-05T19:00:34.491Z,-20.20
2024-01-05T19:03:01.967Z,-20.25
2024-01-05T19:05:29.492Z,-20.19
2024-01-05T19:07:56.851Z,-20.16
2024-01-05T19:10:28.264Z,-20.06
2024-01-05T19:12:55.520Z,-20.04
2024-01-05T19:15:22.860Z,-20.06
2024-01-05T19:18:20.340Z,-20.07
2024-01-05T19:21:19.989Z,-21.68
2024-01-05T19:24:04.870Z,-20.36
2024-01-05T19:30:01.344Z,-20.47
2024-01-05T19:32:37.549Z,-19.85
2024-01-05T19:35:07.665Z,-20.10
2024-01-05T19:37:36.142Z,-19.95
2024-01-05T19:40:11.859Z,-19.92
2024-01-05T19:42:53.314Z,-19.86
2024-01-05T19:45:20.695Z,-19.87
2024-01-05T19:47:48.093Z,-19.88
2024-01-05T19:50:21.336Z,-19.87
2024-01-05T19:52:49.793Z,-19.90
2024-01-05T19:55:17.443Z,-20.48
2024-01-05T19:57:47.224Z,-19.97
2024-01-05T20:00:35.998Z,-20.08
2024-01-05T20:03:05.878Z,-20.13
2024-01-05T20:05:34.239Z,-20.01
2024-01-05T20:08:02.450Z,-19.93
2024-01-05T20:10:31.297Z,-19.94
2024-01-05T20:12:59.144Z,-19.96
2024-01-05T20:15:28.509Z,-19.99
2024-01-05T20:18:16.577Z,-20.16
2024-01-05T20:20:44.373Z,-20.32
2024-01-05T20:23:12.394Z,-19.92
2024-01-05T20:25:48.844Z,-19.87
2024-01-05T20:28:16.457Z,-20.27
2024-01-05T20:30:44.684Z,-19.88
2024-01-05T20:33:12.075Z,-19.87
2024-01-05T20:35:39.728Z,-19.97
2024-01-05T20:38:06.906Z,-19.97
2024-01-05T20:40:34.516Z,-19.85
2024-01-05T20:43:01.802Z,-19.79
2024-01-05T20:45:29.160Z,-20.15
2024-01-05T20:47:56.790Z,-19.80
2024-01-05T20:50:24.398Z,-19.93
2024-01-05T20:52:51.788Z,-19.70
2024-01-05T20:55:19.014Z,-19.69
2024-01-05T20:57:46.392Z,-20.22
2024-01-05T21:00:13.876Z,-20.21
2024-01-05T21:02:41.169Z,-19.68
2024-01-05T21:05:08.680Z,-19.53
2024-01-05T21:07:36.797Z,-19.85
2024-01-05T21:10:05.376Z,-19.90
2024-01-05T21:12:34.333Z,-19.48
2024-01-05T21:15:02.653Z,-19.43
2024-01-05T21:17:33.456Z,-19.45
2024-01-05T21:20:01.140Z,-19.52
2024-01-05T21:22:31.358Z,-19.40
2024-01-05T21:25:01.639Z,-19.33
2024-01-05T21:27:30.802Z,-19.12
2024-01-05T21:29:58.901Z,-18.98
2024-01-05T21:32:29.189Z,-19.13
2024-01-05T21:34:57.727Z,-18.91
2024-01-05T21:37:29.514Z,-18.91
2024-01-05T21:39:56.790Z,-18.90
2024-01-05T21:42:24.299Z,-18.98
2024-01-05T21:44:52.101Z,-19.53
2024-01-05T21:47:20.832Z,-18.94
2024-01-05T21:49:49.102Z,-18.90
2024-01-05T21:52:16.370Z,-18.92
2024-01-05T21:54:43.662Z,-18.80
2024-01-05T21:57:11.292Z,-18.80
2024-01-05T21:59:39.170Z,-18.76
2024-01-05T22:02:07.281Z,-18.73
2024-01-05T22:04:35.021Z,-19.12
2024-01-05T22:07:02.769Z,-18.67
2024-01-05T22:09:30.109Z,-18.57
2024-01-05T22:11:57.499Z,-18.56
2024-01-05T22:14:25.084Z,-18.50
2024-01-05T22:16:54.115Z,-18.18
2024-01-05T22:19:22.109Z,-17.98
2024-01-05T22:21:49.687Z,-17.75
2024-01-05T22:24:18.423Z,-17.60
2024-01-05T22:26:45.956Z,-17.57
2024-01-05T22:29:13.209Z,-17.49
2024-01-05T22:31:40.821Z,-17.49
2024-01-05T22:34:08.143Z,-17.41
2024-01-05T22:36:35.487Z,-17.65
2024-01-05T22:39:03.104Z,-17.28
2024-01-05T22:41:30.651Z,-17.42
2024-01-05T22:43:57.875Z,-17.53
2024-01-05T22:46:25.063Z,-17.86
2024-01-05T22:48:52.303Z,-17.84
2024-01-05T22:51:23.940Z,-17.90
2024-01-05T22:53:51.510Z,-18.06
2024-01-05T22:56:19.076Z,-18.05
2024-01-05T22:58:46.493Z,-18.01
2024-01-05T23:01:21.449Z,-17.71
2024-01-05T23:03:50.482Z,-17.84
2024-01-05T23:06:18.748Z,-17.97
2024-01-05T23:08:46.503Z,-18.07
2024-01-05T23:11:13.822Z,-17.97
2024-01-05T23:13:41.131Z,-17.92
2024-01-05T23:16:09.170Z,-18.11
2024-01-05T23:18:36.955Z,-17.97
2024-01-05T23:21:04.627Z,-17.84
2024-01-05T23:23:32.084Z,-17.71
2024-01-05T23:25:59.527Z,-17.84
2024-01-05T23:28:26.945Z,-17.70
2024-01-05T23:30:54.280Z,-17.57
2024-01-05T23:33:21.707Z,-17.55
